CheckWX is a tool to help pilots better visualize weather data.  It is not intended as a substitute for an official pre-flight weather briefing.

00:26:14 UTC

KBRL METAR
Southeast Iowa Regional Airport
Burlington, Iowa, USA
Current

33 mins ago

KBRL 202353Z AUTO 00000KT 10SM CLR 21/M02 A2983 RMK AO2 SLP101 T02061022 10211 20172 56008
Observed
Apr-20 @ 23:53 UTC
Visibility
10 SM
Flight Rules
VFR
Cloud Levels
  • Clear skies
Temperature
21°C / 70°F
Dewpoint
-2°C / 28°F
Humidity
21%
Altimeter
29.83" Hg
Pressure
1010.12 hPa
Previous

2 hours ago

KBRL 202253Z AUTO 35003KT 10SM CLR 21/M02 A2983 RMK AO2 SLP102 T02111017
Observed
Apr-20 @ 22:53 UTC
Wind
  • 350° at 3 KTS
Visibility
10 SM
Flight Rules
VFR
Cloud Levels
  • Clear skies
Temperature
21°C / 70°F
Dewpoint
-2°C / 28°F
Humidity
21%
Altimeter
29.83" Hg
Pressure
1010.12 hPa
Previous

3 hours ago

KBRL 202153Z AUTO 16003KT 10SM CLR 20/M01 A2984 RMK AO2 SLP105 T02001011
Observed
Apr-20 @ 21:53 UTC
Wind
  • 160° at 3 KTS
Visibility
10 SM
Flight Rules
VFR
Cloud Levels
  • Clear skies
Temperature
20°C / 68°F
Dewpoint
-1°C / 30°F
Humidity
24%
Altimeter
29.84" Hg
Pressure
1010.52 hPa